sensor_id;sensor_type;location;lat;lon;timestamp;P1;durP1;ratioP1;P2;durP2;ratioP2
13849;SDS011;6995;52.618;13.488;2022-07-04T00:01:05;22.65;;;21.33;;
13849;SDS011;6995;52.618;13.488;2022-07-04T00:03:30;22.30;;;21.20;;
13849;SDS011;6995;52.618;13.488;2022-07-04T00:05:56;21.73;;;20.73;;
13849;SDS011;6995;52.618;13.488;2022-07-04T00:08:22;22.33;;;21.33;;
13849;SDS011;6995;52.618;13.488;2022-07-04T00:10:48;21.23;;;20.23;;
13849;SDS011;6995;52.618;13.488;2022-07-04T00:13:14;20.90;;;19.90;;
13849;SDS011;6995;52.618;13.488;2022-07-04T00:15:39;21.55;;;20.45;;
13849;SDS011;6995;52.618;13.488;2022-07-04T00:18:05;20.63;;;19.52;;
13849;SDS011;6995;52.618;13.488;2022-07-04T00:20:31;20.52;;;19.60;;
13849;SDS011;6995;52.618;13.488;2022-07-04T00:22:56;22.00;;;20.83;;
13849;SDS011;6995;52.618;13.488;2022-07-04T00:25:22;23.23;;;21.77;;
13849;SDS011;6995;52.618;13.488;2022-07-04T00:27:48;18.83;;;18.02;;
13849;SDS011;6995;52.618;13.488;2022-07-04T00:30:13;22.25;;;20.92;;
13849;SDS011;6995;52.618;13.488;2022-07-04T00:32:39;22.00;;;21.00;;
13849;SDS011;6995;52.618;13.488;2022-07-04T00:35:05;20.27;;;19.15;;
13849;SDS011;6995;52.618;13.488;2022-07-04T00:37:31;20.42;;;19.42;;
13849;SDS011;6995;52.618;13.488;2022-07-04T00:39:56;21.42;;;20.35;;
13849;SDS011;6995;52.618;13.488;2022-07-04T00:42:22;20.95;;;19.77;;
13849;SDS011;6995;52.618;13.488;2022-07-04T00:44:48;20.58;;;19.58;;
13849;SDS011;6995;52.618;13.488;2022-07-04T00:47:13;21.95;;;20.75;;
13849;SDS011;6995;52.618;13.488;2022-07-04T00:49:39;20.48;;;19.27;;
13849;SDS011;6995;52.618;13.488;2022-07-04T00:52:05;20.17;;;19.13;;
13849;SDS011;6995;52.618;13.488;2022-07-04T00:54:32;20.80;;;19.80;;
13849;SDS011;6995;52.618;13.488;2022-07-04T00:56:58;20.48;;;19.25;;
13849;SDS011;6995;52.618;13.488;2022-07-04T00:59:25;20.95;;;19.88;;
13849;SDS011;6995;52.618;13.488;2022-07-04T01:01:52;20.40;;;19.35;;
13849;SDS011;6995;52.618;13.488;2022-07-04T01:04:18;20.48;;;19.08;;
13849;SDS011;6995;52.618;13.488;2022-07-04T01:06:44;20.50;;;19.38;;
13849;SDS011;6995;52.618;13.488;2022-07-04T01:09:10;21.20;;;20.10;;
13849;SDS011;6995;52.618;13.488;2022-07-04T01:11:36;21.45;;;20.27;;
13849;SDS011;6995;52.618;13.488;2022-07-04T01:14:02;20.00;;;19.00;;
13849;SDS011;6995;52.618;13.488;2022-07-04T01:16:30;20.63;;;19.73;;
13849;SDS011;6995;52.618;13.488;2022-07-04T01:18:55;20.27;;;19.27;;
13849;SDS011;6995;52.618;13.488;2022-07-04T01:21:21;21.33;;;20.13;;
13849;SDS011;6995;52.618;13.488;2022-07-04T01:23:47;19.88;;;18.88;;
13849;SDS011;6995;52.618;13.488;2022-07-04T01:26:13;20.27;;;19.33;;
13849;SDS011;6995;52.618;13.488;2022-07-04T01:28:38;21.67;;;20.67;;
13849;SDS011;6995;52.618;13.488;2022-07-04T01:31:04;20.85;;;19.85;;
13849;SDS011;6995;52.618;13.488;2022-07-04T01:33:30;22.08;;;20.73;;
13849;SDS011;6995;52.618;13.488;2022-07-04T01:35:56;20.95;;;19.67;;
13849;SDS011;6995;52.618;13.488;2022-07-04T01:38:22;23.13;;;21.88;;
13849;SDS011;6995;52.618;13.488;2022-07-04T01:40:48;20.92;;;19.65;;
13849;SDS011;6995;52.618;13.488;2022-07-04T01:43:14;22.27;;;21.17;;
13849;SDS011;6995;52.618;13.488;2022-07-04T01:45:40;24.10;;;22.83;;
13849;SDS011;6995;52.618;13.488;2022-07-04T01:48:09;24.27;;;23.02;;
13849;SDS011;6995;52.618;13.488;2022-07-04T01:50:36;24.75;;;23.38;;
13849;SDS011;6995;52.618;13.488;2022-07-04T01:53:03;26.38;;;25.17;;
13849;SDS011;6995;52.618;13.488;2022-07-04T01:55:29;26.08;;;24.88;;
13849;SDS011;6995;52.618;13.488;2022-07-04T01:57:55;28.95;;;27.17;;
13849;SDS011;6995;52.618;13.488;2022-07-04T02:00:20;27.05;;;25.50;;
13849;SDS011;6995;52.618;13.488;2022-07-04T02:03:05;22.70;;;21.50;;
13849;SDS011;6995;52.618;13.488;2022-07-04T02:05:30;22.25;;;21.05;;
13849;SDS011;6995;52.618;13.488;2022-07-04T02:07:56;23.00;;;21.90;;
13849;SDS011;6995;52.618;13.488;2022-07-04T02:10:22;22.55;;;21.42;;
13849;SDS011;6995;52.618;13.488;2022-07-04T02:12:47;23.02;;;21.52;;
13849;SDS011;6995;52.618;13.488;2022-07-04T02:18:05;21.08;;;20.08;;
13849;SDS011;6995;52.618;13.488;2022-07-04T02:20:33;21.73;;;20.38;;
13849;SDS011;6995;52.618;13.488;2022-07-04T02:22:59;20.73;;;19.48;;
13849;SDS011;6995;52.618;13.488;2022-07-04T02:25:25;21.83;;;20.40;;
13849;SDS011;6995;52.618;13.488;2022-07-04T02:27:51;21.20;;;20.15;;
13849;SDS011;6995;52.618;13.488;2022-07-04T02:30:17;23.75;;;22.45;;
13849;SDS011;6995;52.618;13.488;2022-07-04T02:32:43;22.27;;;20.88;;
13849;SDS011;6995;52.618;13.488;2022-07-04T02:35:09;24.73;;;23.27;;
13849;SDS011;6995;52.618;13.488;2022-07-04T02:37:35;22.45;;;21.25;;
13849;SDS011;6995;52.618;13.488;2022-07-04T02:40:02;22.15;;;20.90;;
13849;SDS011;6995;52.618;13.488;2022-07-04T02:42:29;25.40;;;23.98;;
13849;SDS011;6995;52.618;13.488;2022-07-04T02:44:56;24.13;;;22.73;;
13849;SDS011;6995;52.618;13.488;2022-07-04T02:47:22;23.60;;;22.30;;
13849;SDS011;6995;52.618;13.488;2022-07-04T02:49:48;23.63;;;22.42;;
13849;SDS011;6995;52.618;13.488;2022-07-04T02:52:14;25.88;;;24.27;;
13849;SDS011;6995;52.618;13.488;2022-07-04T02:54:40;25.63;;;24.23;;
13849;SDS011;6995;52.618;13.488;2022-07-04T02:57:07;24.92;;;23.42;;
13849;SDS011;6995;52.618;13.488;2022-07-04T02:59:32;25.35;;;23.90;;
13849;SDS011;6995;52.618;13.488;2022-07-04T03:01:58;29.27;;;27.58;;
13849;SDS011;6995;52.618;13.488;2022-07-04T03:04:24;28.40;;;26.92;;
13849;SDS011;6995;52.618;13.488;2022-07-04T03:06:49;33.15;;;31.38;;
13849;SDS011;6995;52.618;13.488;2022-07-04T03:09:16;34.08;;;32.20;;
13849;SDS011;6995;52.618;13.488;2022-07-04T03:11:42;36.08;;;33.88;;
13849;SDS011;6995;52.618;13.488;2022-07-04T03:14:08;38.78;;;36.63;;
13849;SDS011;6995;52.618;13.488;2022-07-04T03:16:34;39.60;;;37.35;;
13849;SDS011;6995;52.618;13.488;2022-07-04T03:18:59;40.42;;;38.13;;
13849;SDS011;6995;52.618;13.488;2022-07-04T03:21:25;36.85;;;34.67;;
13849;SDS011;6995;52.618;13.488;2022-07-04T03:23:51;47.53;;;45.13;;
13849;SDS011;6995;52.618;13.488;2022-07-04T03:26:23;51.20;;;48.55;;
13849;SDS011;6995;52.618;13.488;2022-07-04T03:28:54;47.17;;;44.38;;
13849;SDS011;6995;52.618;13.488;2022-07-04T03:31:20;48.95;;;45.83;;
13849;SDS011;6995;52.618;13.488;2022-07-04T03:33:46;51.55;;;48.70;;
13849;SDS011;6995;52.618;13.488;2022-07-04T03:36:12;55.25;;;52.05;;
13849;SDS011;6995;52.618;13.488;2022-07-04T03:38:37;56.10;;;52.97;;
13849;SDS011;6995;52.618;13.488;2022-07-04T03:41:03;48.95;;;46.35;;
13849;SDS011;6995;52.618;13.488;2022-07-04T03:43:28;64.07;;;60.75;;
13849;SDS011;6995;52.618;13.488;2022-07-04T03:45:54;56.97;;;54.03;;
13849;SDS011;6995;52.618;13.488;2022-07-04T03:48:20;57.50;;;54.38;;
13849;SDS011;6995;52.618;13.488;2022-07-04T03:50:45;53.55;;;50.60;;
13849;SDS011;6995;52.618;13.488;2022-07-04T03:53:11;53.97;;;51.00;;
13849;SDS011;6995;52.618;13.488;2022-07-04T03:55:37;43.72;;;40.97;;
13849;SDS011;6995;52.618;13.488;2022-07-04T03:58:04;51.75;;;48.83;;
13849;SDS011;6995;52.618;13.488;2022-07-04T04:00:30;81.45;;;77.28;;
13849;SDS011;6995;52.618;13.488;2022-07-04T04:02:56;54.13;;;51.33;;
13849;SDS011;6995;52.618;13.488;2022-07-04T04:05:22;50.65;;;47.72;;
13849;SDS011;6995;52.618;13.488;2022-07-04T04:07:52;44.53;;;41.85;;
13849;SDS011;6995;52.618;13.488;2022-07-04T04:10:22;42.22;;;39.83;;
13849;SDS011;6995;52.618;13.488;2022-07-04T04:12:50;38.10;;;35.85;;
13849;SDS011;6995;52.618;13.488;2022-07-04T04:15:16;39.20;;;37.10;;
13849;SDS011;6995;52.618;13.488;2022-07-04T04:17:42;37.28;;;35.10;;
13849;SDS011;6995;52.618;13.488;2022-07-04T04:20:07;63.20;;;59.90;;
13849;SDS011;6995;52.618;13.488;2022-07-04T04:22:33;69.88;;;66.25;;
13849;SDS011;6995;52.618;13.488;2022-07-04T04:24:59;57.05;;;53.85;;
13849;SDS011;6995;52.618;13.488;2022-07-04T04:27:25;50.63;;;48.00;;
13849;SDS011;6995;52.618;13.488;2022-07-04T04:29:51;50.42;;;47.83;;
13849;SDS011;6995;52.618;13.488;2022-07-04T04:32:17;51.05;;;48.53;;
13849;SDS011;6995;52.618;13.488;2022-07-04T04:34:42;65.93;;;62.72;;
13849;SDS011;6995;52.618;13.488;2022-07-04T04:37:08;48.50;;;45.97;;
13849;SDS011;6995;52.618;13.488;2022-07-04T04:39:34;38.72;;;36.33;;
13849;SDS011;6995;52.618;13.488;2022-07-04T04:41:59;39.67;;;37.28;;
13849;SDS011;6995;52.618;13.488;2022-07-04T04:44:25;38.10;;;35.90;;
13849;SDS011;6995;52.618;13.488;2022-07-04T04:46:51;36.05;;;33.85;;
13849;SDS011;6995;52.618;13.488;2022-07-04T04:49:16;33.72;;;31.55;;
13849;SDS011;6995;52.618;13.488;2022-07-04T04:51:42;31.42;;;29.50;;
13849;SDS011;6995;52.618;13.488;2022-07-04T04:54:08;32.75;;;30.92;;
13849;SDS011;6995;52.618;13.488;2022-07-04T04:56:34;41.65;;;39.10;;
13849;SDS011;6995;52.618;13.488;2022-07-04T04:58:59;37.53;;;35.25;;
13849;SDS011;6995;52.618;13.488;2022-07-04T05:01:25;34.08;;;32.05;;
13849;SDS011;6995;52.618;13.488;2022-07-04T05:03:50;31.40;;;29.63;;
13849;SDS011;6995;52.618;13.488;2022-07-04T05:06:16;32.53;;;30.33;;
13849;SDS011;6995;52.618;13.488;2022-07-04T05:08:43;28.70;;;27.02;;
13849;SDS011;6995;52.618;13.488;2022-07-04T05:11:09;27.42;;;25.67;;
13849;SDS011;6995;52.618;13.488;2022-07-04T05:13:35;28.73;;;26.85;;
13849;SDS011;6995;52.618;13.488;2022-07-04T05:16:00;30.42;;;28.23;;
13849;SDS011;6995;52.618;13.488;2022-07-04T05:18:26;30.77;;;28.90;;
13849;SDS011;6995;52.618;13.488;2022-07-04T05:20:51;28.55;;;26.50;;
13849;SDS011;6995;52.618;13.488;2022-07-04T05:23:17;26.42;;;24.85;;
13849;SDS011;6995;52.618;13.488;2022-07-04T05:25:43;26.30;;;24.52;;
13849;SDS011;6995;52.618;13.488;2022-07-04T05:28:08;25.83;;;24.15;;
13849;SDS011;6995;52.618;13.488;2022-07-04T05:30:34;27.17;;;25.33;;
13849;SDS011;6995;52.618;13.488;2022-07-04T05:33:00;24.10;;;22.70;;
13849;SDS011;6995;52.618;13.488;2022-07-04T05:35:26;24.20;;;22.42;;
13849;SDS011;6995;52.618;13.488;2022-07-04T05:37:52;26.02;;;24.30;;
13849;SDS011;6995;52.618;13.488;2022-07-04T05:40:18;27.15;;;25.40;;
13849;SDS011;6995;52.618;13.488;2022-07-04T05:42:46;25.25;;;23.77;;
13849;SDS011;6995;52.618;13.488;2022-07-04T05:45:12;26.30;;;24.70;;
13849;SDS011;6995;52.618;13.488;2022-07-04T05:47:37;22.63;;;21.13;;
13849;SDS011;6995;52.618;13.488;2022-07-04T05:50:03;22.52;;;21.13;;
13849;SDS011;6995;52.618;13.488;2022-07-04T05:52:29;24.02;;;22.65;;
13849;SDS011;6995;52.618;13.488;2022-07-04T05:54:55;21.85;;;20.55;;
13849;SDS011;6995;52.618;13.488;2022-07-04T05:57:20;22.73;;;21.23;;
13849;SDS011;6995;52.618;13.488;2022-07-04T05:59:46;26.05;;;24.15;;
13849;SDS011;6995;52.618;13.488;2022-07-04T06:02:12;23.65;;;22.20;;
13849;SDS011;6995;52.618;13.488;2022-07-04T06:04:38;22.60;;;21.20;;
13849;SDS011;6995;52.618;13.488;2022-07-04T06:07:03;21.75;;;20.38;;
13849;SDS011;6995;52.618;13.488;2022-07-04T06:09:29;23.85;;;22.15;;
13849;SDS011;6995;52.618;13.488;2022-07-04T06:11:55;23.10;;;21.60;;
13849;SDS011;6995;52.618;13.488;2022-07-04T06:14:20;21.08;;;19.88;;
13849;SDS011;6995;52.618;13.488;2022-07-04T06:16:46;22.20;;;20.95;;
13849;SDS011;6995;52.618;13.488;2022-07-04T06:19:11;23.13;;;21.60;;
13849;SDS011;6995;52.618;13.488;2022-07-04T06:21:37;24.40;;;22.73;;
13849;SDS011;6995;52.618;13.488;2022-07-04T06:24:03;22.08;;;20.85;;
13849;SDS011;6995;52.618;13.488;2022-07-04T06:26:29;22.98;;;21.67;;
13849;SDS011;6995;52.618;13.488;2022-07-04T06:28:55;22.23;;;20.88;;
13849;SDS011;6995;52.618;13.488;2022-07-04T06:31:21;24.98;;;23.48;;
13849;SDS011;6995;52.618;13.488;2022-07-04T06:33:47;21.33;;;20.25;;
13849;SDS011;6995;52.618;13.488;2022-07-04T06:36:31;21.75;;;20.52;;
13849;SDS011;6995;52.618;13.488;2022-07-04T06:38:57;23.83;;;22.40;;
13849;SDS011;6995;52.618;13.488;2022-07-04T06:41:23;22.60;;;21.20;;
13849;SDS011;6995;52.618;13.488;2022-07-04T06:43:49;19.77;;;18.73;;
13849;SDS011;6995;52.618;13.488;2022-07-04T06:46:14;20.83;;;19.77;;
13849;SDS011;6995;52.618;13.488;2022-07-04T06:51:28;22.95;;;21.95;;
13849;SDS011;6995;52.618;13.488;2022-07-04T06:53:54;25.00;;;23.60;;
13849;SDS011;6995;52.618;13.488;2022-07-04T06:56:20;23.48;;;22.27;;
13849;SDS011;6995;52.618;13.488;2022-07-04T06:58:46;21.48;;;20.30;;
13849;SDS011;6995;52.618;13.488;2022-07-04T07:01:11;22.98;;;21.77;;
13849;SDS011;6995;52.618;13.488;2022-07-04T07:03:39;23.50;;;22.20;;
13849;SDS011;6995;52.618;13.488;2022-07-04T07:06:04;20.70;;;19.33;;
13849;SDS011;6995;52.618;13.488;2022-07-04T07:08:30;20.10;;;19.10;;
13849;SDS011;6995;52.618;13.488;2022-07-04T07:10:57;21.13;;;19.80;;
13849;SDS011;6995;52.618;13.488;2022-07-04T07:13:37;18.65;;;17.75;;
13849;SDS011;6995;52.618;13.488;2022-07-04T07:16:06;20.27;;;19.27;;
13849;SDS011;6995;52.618;13.488;2022-07-04T07:18:32;19.40;;;18.30;;
13849;SDS011;6995;52.618;13.488;2022-07-04T07:20:57;19.52;;;18.42;;
13849;SDS011;6995;52.618;13.488;2022-07-04T07:23:23;20.02;;;19.02;;
13849;SDS011;6995;52.618;13.488;2022-07-04T07:25:48;21.08;;;20.02;;
13849;SDS011;6995;52.618;13.488;2022-07-04T07:28:14;21.00;;;20.00;;
13849;SDS011;6995;52.618;13.488;2022-07-04T07:30:40;18.65;;;17.55;;
13849;SDS011;6995;52.618;13.488;2022-07-04T07:33:13;18.77;;;17.77;;
13849;SDS011;6995;52.618;13.488;2022-07-04T07:35:39;21.67;;;20.48;;
13849;SDS011;6995;52.618;13.488;2022-07-04T07:38:04;19.65;;;18.65;;
13849;SDS011;6995;52.618;13.488;2022-07-04T07:40:32;19.23;;;18.23;;
13849;SDS011;6995;52.618;13.488;2022-07-04T07:42:57;20.50;;;19.25;;
13849;SDS011;6995;52.618;13.488;2022-07-04T07:45:23;21.20;;;20.00;;
13849;SDS011;6995;52.618;13.488;2022-07-04T07:47:51;21.40;;;20.10;;
13849;SDS011;6995;52.618;13.488;2022-07-04T07:50:37;21.13;;;20.02;;
13849;SDS011;6995;52.618;13.488;2022-07-04T07:53:03;19.02;;;18.13;;
13849;SDS011;6995;52.618;13.488;2022-07-04T07:55:31;22.67;;;21.27;;
13849;SDS011;6995;52.618;13.488;2022-07-04T07:57:59;24.88;;;23.00;;
13849;SDS011;6995;52.618;13.488;2022-07-04T08:00:26;21.17;;;19.88;;
13849;SDS011;6995;52.618;13.488;2022-07-04T08:02:52;19.48;;;18.48;;
13849;SDS011;6995;52.618;13.488;2022-07-04T08:05:37;21.00;;;19.83;;
13849;SDS011;6995;52.618;13.488;2022-07-04T08:08:03;20.35;;;19.10;;
13849;SDS011;6995;52.618;13.488;2022-07-04T08:10:29;17.50;;;16.40;;
13849;SDS011;6995;52.618;13.488;2022-07-04T08:12:55;18.55;;;17.67;;
13849;SDS011;6995;52.618;13.488;2022-07-04T08:15:21;19.98;;;18.75;;
13849;SDS011;6995;52.618;13.488;2022-07-04T08:17:47;18.55;;;17.55;;
13849;SDS011;6995;52.618;13.488;2022-07-04T08:20:12;20.80;;;19.63;;
13849;SDS011;6995;52.618;13.488;2022-07-04T08:22:38;20.80;;;19.45;;
13849;SDS011;6995;52.618;13.488;2022-07-04T08:25:04;18.90;;;17.92;;
13849;SDS011;6995;52.618;13.488;2022-07-04T08:27:32;19.10;;;18.13;;
13849;SDS011;6995;52.618;13.488;2022-07-04T08:30:04;20.23;;;19.13;;
13849;SDS011;6995;52.618;13.488;2022-07-04T08:32:30;18.88;;;17.98;;
13849;SDS011;6995;52.618;13.488;2022-07-04T08:34:59;19.27;;;18.10;;
13849;SDS011;6995;52.618;13.488;2022-07-04T08:37:25;18.45;;;17.23;;
13849;SDS011;6995;52.618;13.488;2022-07-04T08:39:51;19.27;;;18.20;;
13849;SDS011;6995;52.618;13.488;2022-07-04T08:42:17;18.33;;;17.00;;
13849;SDS011;6995;52.618;13.488;2022-07-04T08:44:49;18.45;;;17.35;;
13849;SDS011;6995;52.618;13.488;2022-07-04T08:47:17;19.27;;;18.27;;
13849;SDS011;6995;52.618;13.488;2022-07-04T08:49:46;19.70;;;18.45;;
13849;SDS011;6995;52.618;13.488;2022-07-04T08:52:23;17.83;;;16.95;;
13849;SDS011;6995;52.618;13.488;2022-07-04T08:58:23;18.20;;;17.30;;
13849;SDS011;6995;52.618;13.488;2022-07-04T09:00:52;20.20;;;18.98;;
13849;SDS011;6995;52.618;13.488;2022-07-04T09:03:19;21.35;;;19.92;;
13849;SDS011;6995;52.618;13.488;2022-07-04T09:05:48;19.42;;;18.40;;
13849;SDS011;6995;52.618;13.488;2022-07-04T09:08:22;20.90;;;19.00;;
13849;SDS011;6995;52.618;13.488;2022-07-04T09:11:20;21.90;;;20.60;;
13849;SDS011;6995;52.618;13.488;2022-07-04T09:13:46;19.90;;;18.70;;
13849;SDS011;6995;52.618;13.488;2022-07-04T09:16:22;19.33;;;18.17;;
13849;SDS011;6995;52.618;13.488;2022-07-04T09:19:09;20.52;;;19.42;;
13849;SDS011;6995;52.618;13.488;2022-07-04T09:21:46;20.20;;;19.15;;
13849;SDS011;6995;52.618;13.488;2022-07-04T09:24:13;20.58;;;19.48;;
13849;SDS011;6995;52.618;13.488;2022-07-04T09:26:45;20.15;;;19.02;;
13849;SDS011;6995;52.618;13.488;2022-07-04T09:29:12;21.23;;;19.83;;
13849;SDS011;6995;52.618;13.488;2022-07-04T09:31:38;22.92;;;21.73;;
13849;SDS011;6995;52.618;13.488;2022-07-04T09:34:05;21.52;;;20.13;;
13849;SDS011;6995;52.618;13.488;2022-07-04T09:36:33;20.38;;;19.30;;
13849;SDS011;6995;52.618;13.488;2022-07-04T09:44:21;22.33;;;20.83;;
13849;SDS011;6995;52.618;13.488;2022-07-04T09:46:47;19.70;;;18.58;;
13849;SDS011;6995;52.618;13.488;2022-07-04T09:49:13;19.98;;;18.88;;
13849;SDS011;6995;52.618;13.488;2022-07-04T09:51:49;19.42;;;18.45;;
13849;SDS011;6995;52.618;13.488;2022-07-04T09:56:54;19.92;;;18.70;;
13849;SDS011;6995;52.618;13.488;2022-07-04T09:59:21;20.60;;;19.25;;
13849;SDS011;6995;52.618;13.488;2022-07-04T10:01:51;19.45;;;18.48;;
13849;SDS011;6995;52.618;13.488;2022-07-04T10:04:43;20.75;;;19.45;;
13849;SDS011;6995;52.618;13.488;2022-07-04T10:13:06;18.55;;;17.58;;
13849;SDS011;6995;52.618;13.488;2022-07-04T10:15:34;17.48;;;16.63;;
13849;SDS011;6995;52.618;13.488;2022-07-04T10:18:06;19.85;;;18.65;;
13849;SDS011;6995;52.618;13.488;2022-07-04T10:20:33;19.10;;;17.73;;
13849;SDS011;6995;52.618;13.488;2022-07-04T10:23:00;17.10;;;16.00;;
13849;SDS011;6995;52.618;13.488;2022-07-04T10:25:26;16.60;;;15.70;;
13849;SDS011;6995;52.618;13.488;2022-07-04T10:27:52;18.73;;;17.52;;
13849;SDS011;6995;52.618;13.488;2022-07-04T10:30:25;18.00;;;17.05;;
13849;SDS011;6995;52.618;13.488;2022-07-04T10:32:57;16.92;;;15.95;;
13849;SDS011;6995;52.618;13.488;2022-07-04T10:38:17;18.80;;;17.45;;
13849;SDS011;6995;52.618;13.488;2022-07-04T10:40:44;19.00;;;17.83;;
13849;SDS011;6995;52.618;13.488;2022-07-04T10:45:55;18.73;;;17.58;;
13849;SDS011;6995;52.618;13.488;2022-07-04T10:48:55;16.95;;;16.00;;
13849;SDS011;6995;52.618;13.488;2022-07-04T10:54:05;17.48;;;16.60;;
13849;SDS011;6995;52.618;13.488;2022-07-04T10:56:52;15.55;;;14.70;;
13849;SDS011;6995;52.618;13.488;2022-07-04T10:59:29;17.10;;;16.27;;
13849;SDS011;6995;52.618;13.488;2022-07-04T11:04:51;20.15;;;18.77;;
13849;SDS011;6995;52.618;13.488;2022-07-04T11:13:01;17.88;;;16.80;;
13849;SDS011;6995;52.618;13.488;2022-07-04T11:20:28;19.83;;;18.63;;
13849;SDS011;6995;52.618;13.488;2022-07-04T11:23:05;19.13;;;18.13;;
13849;SDS011;6995;52.618;13.488;2022-07-04T11:25:42;20.10;;;18.83;;
13849;SDS011;6995;52.618;13.488;2022-07-04T11:30:59;20.27;;;19.08;;
13849;SDS011;6995;52.618;13.488;2022-07-04T11:33:27;20.80;;;19.15;;
13849;SDS011;6995;52.618;13.488;2022-07-04T11:38:53;17.63;;;16.48;;
13849;SDS011;6995;52.618;13.488;2022-07-04T11:41:27;17.13;;;16.00;;
13849;SDS011;6995;52.618;13.488;2022-07-04T11:44:15;17.70;;;16.83;;
13849;SDS011;6995;52.618;13.488;2022-07-04T11:47:03;17.73;;;16.83;;
13849;SDS011;6995;52.618;13.488;2022-07-04T11:49:56;19.90;;;18.70;;
13849;SDS011;6995;52.618;13.488;2022-07-04T11:52:24;18.35;;;17.33;;
13849;SDS011;6995;52.618;13.488;2022-07-04T11:55:18;18.35;;;17.35;;
13849;SDS011;6995;52.618;13.488;2022-07-04T11:57:46;17.27;;;16.38;;
13849;SDS011;6995;52.618;13.488;2022-07-04T12:00:15;19.63;;;18.45;;
13849;SDS011;6995;52.618;13.488;2022-07-04T12:02:43;18.83;;;17.73;;
13849;SDS011;6995;52.618;13.488;2022-07-04T12:05:10;18.15;;;17.15;;
13849;SDS011;6995;52.618;13.488;2022-07-04T12:07:37;17.70;;;16.73;;
13849;SDS011;6995;52.618;13.488;2022-07-04T12:15:37;18.13;;;17.08;;
13849;SDS011;6995;52.618;13.488;2022-07-04T12:18:04;18.52;;;17.30;;
13849;SDS011;6995;52.618;13.488;2022-07-04T12:20:31;18.48;;;17.38;;
13849;SDS011;6995;52.618;13.488;2022-07-04T12:22:58;19.17;;;18.05;;
13849;SDS011;6995;52.618;13.488;2022-07-04T12:25:29;17.30;;;16.13;;
13849;SDS011;6995;52.618;13.488;2022-07-04T12:28:12;17.00;;;16.08;;
13849;SDS011;6995;52.618;13.488;2022-07-04T12:30:49;18.25;;;17.27;;
13849;SDS011;6995;52.618;13.488;2022-07-04T12:33:27;16.42;;;15.40;;
13849;SDS011;6995;52.618;13.488;2022-07-04T12:36:00;15.75;;;14.95;;
13849;SDS011;6995;52.618;13.488;2022-07-04T12:38:35;16.13;;;15.02;;
13849;SDS011;6995;52.618;13.488;2022-07-04T12:41:06;20.63;;;19.63;;
13849;SDS011;6995;52.618;13.488;2022-07-04T12:48:49;22.00;;;20.92;;
13849;SDS011;6995;52.618;13.488;2022-07-04T12:51:23;22.38;;;21.23;;
13849;SDS011;6995;52.618;13.488;2022-07-04T12:53:53;16.90;;;16.00;;
13849;SDS011;6995;52.618;13.488;2022-07-04T12:56:28;15.25;;;14.50;;
13849;SDS011;6995;52.618;13.488;2022-07-04T12:58:54;16.60;;;15.68;;
13849;SDS011;6995;52.618;13.488;2022-07-04T13:01:20;18.00;;;16.85;;
13849;SDS011;6995;52.618;13.488;2022-07-04T13:03:46;20.85;;;19.70;;
13849;SDS011;6995;52.618;13.488;2022-07-04T13:06:12;17.63;;;16.73;;
13849;SDS011;6995;52.618;13.488;2022-07-04T13:08:37;17.25;;;16.20;;
13849;SDS011;6995;52.618;13.488;2022-07-04T13:11:03;16.63;;;15.63;;
13849;SDS011;6995;52.618;13.488;2022-07-04T13:13:47;15.00;;;14.30;;
13849;SDS011;6995;52.618;13.488;2022-07-04T13:16:13;14.93;;;14.15;;
13849;SDS011;6995;52.618;13.488;2022-07-04T13:18:39;16.02;;;14.93;;
13849;SDS011;6995;52.618;13.488;2022-07-04T13:21:05;15.23;;;14.32;;
13849;SDS011;6995;52.618;13.488;2022-07-04T13:23:36;15.15;;;14.40;;
13849;SDS011;6995;52.618;13.488;2022-07-04T13:29:31;14.18;;;13.18;;
13849;SDS011;6995;52.618;13.488;2022-07-04T13:31:56;15.07;;;14.20;;
13849;SDS011;6995;52.618;13.488;2022-07-04T13:34:22;15.35;;;14.35;;
13849;SDS011;6995;52.618;13.488;2022-07-04T13:36:48;16.08;;;15.23;;
13849;SDS011;6995;52.618;13.488;2022-07-04T13:39:14;19.25;;;18.17;;
13849;SDS011;6995;52.618;13.488;2022-07-04T13:41:41;17.33;;;16.33;;
13849;SDS011;6995;52.618;13.488;2022-07-04T13:44:07;17.25;;;16.25;;
13849;SDS011;6995;52.618;13.488;2022-07-04T13:46:34;15.45;;;14.45;;
13849;SDS011;6995;52.618;13.488;2022-07-04T13:49:03;16.85;;;15.65;;
13849;SDS011;6995;52.618;13.488;2022-07-04T13:51:35;22.35;;;21.05;;
13849;SDS011;6995;52.618;13.488;2022-07-04T13:54:03;16.88;;;15.98;;
13849;SDS011;6995;52.618;13.488;2022-07-04T13:56:28;17.55;;;16.60;;
13849;SDS011;6995;52.618;13.488;2022-07-04T13:58:54;16.77;;;15.88;;
13849;SDS011;6995;52.618;13.488;2022-07-04T14:01:26;17.70;;;16.20;;
13849;SDS011;6995;52.618;13.488;2022-07-04T14:03:51;15.27;;;14.57;;
13849;SDS011;6995;52.618;13.488;2022-07-04T14:06:17;17.00;;;16.20;;
13849;SDS011;6995;52.618;13.488;2022-07-04T14:08:44;14.35;;;13.65;;
13849;SDS011;6995;52.618;13.488;2022-07-04T14:11:10;13.75;;;12.95;;
13849;SDS011;6995;52.618;13.488;2022-07-04T14:13:36;15.68;;;14.63;;
13849;SDS011;6995;52.618;13.488;2022-07-04T14:16:06;17.70;;;16.48;;
13849;SDS011;6995;52.618;13.488;2022-07-04T14:18:32;15.38;;;14.38;;
13849;SDS011;6995;52.618;13.488;2022-07-04T14:20:58;16.13;;;15.20;;
13849;SDS011;6995;52.618;13.488;2022-07-04T14:23:24;15.38;;;14.57;;
13849;SDS011;6995;52.618;13.488;2022-07-04T14:26:10;17.98;;;17.08;;
13849;SDS011;6995;52.618;13.488;2022-07-04T14:28:41;16.15;;;15.35;;
13849;SDS011;6995;52.618;13.488;2022-07-04T14:31:09;15.25;;;14.55;;
13849;SDS011;6995;52.618;13.488;2022-07-04T14:33:35;14.52;;;13.65;;
13849;SDS011;6995;52.618;13.488;2022-07-04T14:36:01;17.38;;;16.30;;
13849;SDS011;6995;52.618;13.488;2022-07-04T14:38:34;18.25;;;17.20;;
13849;SDS011;6995;52.618;13.488;2022-07-04T14:41:01;15.90;;;15.07;;
13849;SDS011;6995;52.618;13.488;2022-07-04T14:43:59;16.60;;;15.55;;
13849;SDS011;6995;52.618;13.488;2022-07-04T14:46:25;22.38;;;21.05;;
13849;SDS011;6995;52.618;13.488;2022-07-04T14:48:51;25.83;;;24.60;;
13849;SDS011;6995;52.618;13.488;2022-07-04T14:51:17;26.25;;;24.92;;
13849;SDS011;6995;52.618;13.488;2022-07-04T14:53:43;19.05;;;17.80;;
13849;SDS011;6995;52.618;13.488;2022-07-04T14:56:09;16.65;;;15.70;;
13849;SDS011;6995;52.618;13.488;2022-07-04T14:58:34;15.82;;;15.02;;
13849;SDS011;6995;52.618;13.488;2022-07-04T15:01:00;17.60;;;16.67;;
13849;SDS011;6995;52.618;13.488;2022-07-04T15:03:43;14.38;;;13.55;;
13849;SDS011;6995;52.618;13.488;2022-07-04T15:06:09;16.80;;;15.57;;
13849;SDS011;6995;52.618;13.488;2022-07-04T15:08:34;16.13;;;15.32;;
13849;SDS011;6995;52.618;13.488;2022-07-04T15:11:00;15.18;;;14.38;;
13849;SDS011;6995;52.618;13.488;2022-07-04T15:13:26;15.25;;;14.32;;
13849;SDS011;6995;52.618;13.488;2022-07-04T15:15:53;14.88;;;13.85;;
13849;SDS011;6995;52.618;13.488;2022-07-04T15:18:18;16.80;;;15.88;;
13849;SDS011;6995;52.618;13.488;2022-07-04T15:20:44;17.27;;;16.20;;
13849;SDS011;6995;52.618;13.488;2022-07-04T15:23:28;15.55;;;14.75;;
13849;SDS011;6995;52.618;13.488;2022-07-04T15:26:12;15.35;;;14.45;;
13849;SDS011;6995;52.618;13.488;2022-07-04T15:28:38;15.98;;;15.18;;
13849;SDS011;6995;52.618;13.488;2022-07-04T15:31:12;16.65;;;15.60;;